sensor_id;sensor_type;location;lat;lon;timestamp;P1;durP1;ratioP1;P2;durP2;ratioP2
15833;SDS011;8017;50.812;4.934;2022-08-04T00:01:08;3.97;;;2.17;;
15833;SDS011;8017;50.812;4.934;2022-08-04T00:04:25;2.17;;;1.60;;
15833;SDS011;8017;50.812;4.934;2022-08-04T00:07:34;3.60;;;1.83;;
15833;SDS011;8017;50.812;4.934;2022-08-04T00:10:40;4.63;;;1.70;;
15833;SDS011;8017;50.812;4.934;2022-08-04T00:13:55;5.43;;;1.53;;
15833;SDS011;8017;50.812;4.934;2022-08-04T00:17:04;4.37;;;1.70;;
15833;SDS011;8017;50.812;4.934;2022-08-04T00:20:07;4.70;;;1.57;;
15833;SDS011;8017;50.812;4.934;2022-08-04T00:23:10;1.53;;;1.43;;
15833;SDS011;8017;50.812;4.934;2022-08-04T00:26:13;3.23;;;2.00;;
15833;SDS011;8017;50.812;4.934;2022-08-04T00:29:17;3.83;;;1.80;;
15833;SDS011;8017;50.812;4.934;2022-08-04T00:32:21;4.13;;;1.83;;
15833;SDS011;8017;50.812;4.934;2022-08-04T00:35:23;2.47;;;1.43;;
15833;SDS011;8017;50.812;4.934;2022-08-04T00:38:25;3.93;;;1.60;;
15833;SDS011;8017;50.812;4.934;2022-08-04T00:41:29;2.83;;;1.57;;
15833;SDS011;8017;50.812;4.934;2022-08-04T00:44:43;4.20;;;1.80;;
15833;SDS011;8017;50.812;4.934;2022-08-04T00:48:03;2.10;;;1.87;;
15833;SDS011;8017;50.812;4.934;2022-08-04T00:51:20;4.57;;;2.10;;
15833;SDS011;8017;50.812;4.934;2022-08-04T00:54:31;2.53;;;1.80;;
15833;SDS011;8017;50.812;4.934;2022-08-04T01:01:03;4.93;;;2.23;;
15833;SDS011;8017;50.812;4.934;2022-08-04T01:04:09;3.70;;;1.80;;
15833;SDS011;8017;50.812;4.934;2022-08-04T01:07:20;3.40;;;1.80;;
15833;SDS011;8017;50.812;4.934;2022-08-04T01:10:52;3.73;;;2.03;;
15833;SDS011;8017;50.812;4.934;2022-08-04T01:14:02;3.60;;;1.70;;
15833;SDS011;8017;50.812;4.934;2022-08-04T01:17:18;3.53;;;1.80;;
15833;SDS011;8017;50.812;4.934;2022-08-04T01:20:24;5.50;;;2.10;;
15833;SDS011;8017;50.812;4.934;2022-08-04T01:27:10;3.07;;;2.00;;
15833;SDS011;8017;50.812;4.934;2022-08-04T01:30:27;2.93;;;1.73;;
15833;SDS011;8017;50.812;4.934;2022-08-04T01:33:32;4.47;;;1.90;;
15833;SDS011;8017;50.812;4.934;2022-08-04T01:36:39;6.43;;;1.90;;
15833;SDS011;8017;50.812;4.934;2022-08-04T01:39:48;5.73;;;2.00;;
15833;SDS011;8017;50.812;4.934;2022-08-04T01:42:52;3.93;;;2.00;;
15833;SDS011;8017;50.812;4.934;2022-08-04T01:45:58;5.20;;;2.00;;
15833;SDS011;8017;50.812;4.934;2022-08-04T01:49:02;3.60;;;1.87;;
15833;SDS011;8017;50.812;4.934;2022-08-04T01:52:07;4.13;;;1.80;;
15833;SDS011;8017;50.812;4.934;2022-08-04T01:55:10;6.00;;;1.70;;
15833;SDS011;8017;50.812;4.934;2022-08-04T01:58:15;3.83;;;1.93;;
15833;SDS011;8017;50.812;4.934;2022-08-04T02:01:20;3.77;;;2.10;;
15833;SDS011;8017;50.812;4.934;2022-08-04T02:04:22;6.83;;;2.10;;
15833;SDS011;8017;50.812;4.934;2022-08-04T02:07:31;4.53;;;2.00;;
15833;SDS011;8017;50.812;4.934;2022-08-04T02:10:51;4.90;;;2.00;;
15833;SDS011;8017;50.812;4.934;2022-08-04T02:14:01;5.23;;;2.20;;
15833;SDS011;8017;50.812;4.934;2022-08-04T02:17:10;4.53;;;1.97;;
15833;SDS011;8017;50.812;4.934;2022-08-04T02:20:14;3.83;;;1.70;;
15833;SDS011;8017;50.812;4.934;2022-08-04T02:23:27;3.33;;;1.97;;
15833;SDS011;8017;50.812;4.934;2022-08-04T02:26:32;4.60;;;1.90;;
15833;SDS011;8017;50.812;4.934;2022-08-04T02:29:38;2.00;;;1.67;;
15833;SDS011;8017;50.812;4.934;2022-08-04T02:32:50;3.63;;;1.90;;
15833;SDS011;8017;50.812;4.934;2022-08-04T02:35:59;3.03;;;2.07;;
15833;SDS011;8017;50.812;4.934;2022-08-04T02:39:03;2.43;;;1.67;;
15833;SDS011;8017;50.812;4.934;2022-08-04T02:42:06;3.47;;;1.50;;
15833;SDS011;8017;50.812;4.934;2022-08-04T02:45:11;6.57;;;2.07;;
15833;SDS011;8017;50.812;4.934;2022-08-04T02:48:15;3.70;;;1.90;;
15833;SDS011;8017;50.812;4.934;2022-08-04T02:51:20;4.63;;;2.13;;
15833;SDS011;8017;50.812;4.934;2022-08-04T02:54:24;6.00;;;1.97;;
15833;SDS011;8017;50.812;4.934;2022-08-04T02:57:29;5.43;;;2.10;;
15833;SDS011;8017;50.812;4.934;2022-08-04T03:00:32;5.17;;;2.47;;
15833;SDS011;8017;50.812;4.934;2022-08-04T03:03:37;5.70;;;2.70;;
15833;SDS011;8017;50.812;4.934;2022-08-04T03:10:20;4.50;;;2.10;;
15833;SDS011;8017;50.812;4.934;2022-08-04T03:13:59;3.40;;;2.27;;
15833;SDS011;8017;50.812;4.934;2022-08-04T03:21:14;5.77;;;2.60;;
15833;SDS011;8017;50.812;4.934;2022-08-04T03:24:43;8.00;;;2.60;;
15833;SDS011;8017;50.812;4.934;2022-08-04T03:28:16;6.17;;;2.63;;
15833;SDS011;8017;50.812;4.934;2022-08-04T03:31:55;5.43;;;2.20;;
15833;SDS011;8017;50.812;4.934;2022-08-04T03:35:17;6.13;;;2.30;;
15833;SDS011;8017;50.812;4.934;2022-08-04T03:42:08;4.53;;;2.43;;
15833;SDS011;8017;50.812;4.934;2022-08-04T03:45:38;4.50;;;2.63;;
15833;SDS011;8017;50.812;4.934;2022-08-04T03:49:16;3.47;;;2.80;;
15833;SDS011;8017;50.812;4.934;2022-08-04T03:52:42;6.13;;;2.43;;
15833;SDS011;8017;50.812;4.934;2022-08-04T03:59:48;5.13;;;2.57;;
15833;SDS011;8017;50.812;4.934;2022-08-04T04:03:07;4.03;;;2.30;;
15833;SDS011;8017;50.812;4.934;2022-08-04T04:10:36;5.87;;;2.70;;
15833;SDS011;8017;50.812;4.934;2022-08-04T04:14:00;4.33;;;2.60;;
15833;SDS011;8017;50.812;4.934;2022-08-04T04:17:27;6.30;;;2.60;;
15833;SDS011;8017;50.812;4.934;2022-08-04T04:20:49;5.73;;;2.70;;
15833;SDS011;8017;50.812;4.934;2022-08-04T04:24:08;7.23;;;3.03;;
15833;SDS011;8017;50.812;4.934;2022-08-04T04:27:31;7.83;;;3.27;;
15833;SDS011;8017;50.812;4.934;2022-08-04T04:30:43;5.97;;;2.67;;
15833;SDS011;8017;50.812;4.934;2022-08-04T04:33:57;4.73;;;2.73;;
15833;SDS011;8017;50.812;4.934;2022-08-04T04:37:16;4.07;;;3.00;;
15833;SDS011;8017;50.812;4.934;2022-08-04T04:40:33;9.20;;;2.80;;
15833;SDS011;8017;50.812;4.934;2022-08-04T04:43:56;6.17;;;2.80;;
15833;SDS011;8017;50.812;4.934;2022-08-04T04:47:26;7.43;;;3.20;;
15833;SDS011;8017;50.812;4.934;2022-08-04T04:50:35;5.93;;;3.00;;
15833;SDS011;8017;50.812;4.934;2022-08-04T04:53:49;4.13;;;2.90;;
15833;SDS011;8017;50.812;4.934;2022-08-04T04:56:59;8.80;;;3.60;;
15833;SDS011;8017;50.812;4.934;2022-08-04T05:00:08;11.53;;;3.50;;
15833;SDS011;8017;50.812;4.934;2022-08-04T05:03:19;7.97;;;4.00;;
15833;SDS011;8017;50.812;4.934;2022-08-04T05:06:39;5.07;;;3.77;;
15833;SDS011;8017;50.812;4.934;2022-08-04T05:09:56;6.63;;;4.70;;
15833;SDS011;8017;50.812;4.934;2022-08-04T05:13:11;7.47;;;4.10;;
15833;SDS011;8017;50.812;4.934;2022-08-04T05:16:26;7.27;;;4.00;;
15833;SDS011;8017;50.812;4.934;2022-08-04T05:19:37;6.00;;;3.73;;
15833;SDS011;8017;50.812;4.934;2022-08-04T05:22:51;7.03;;;4.03;;
15833;SDS011;8017;50.812;4.934;2022-08-04T05:25:58;7.37;;;3.63;;
15833;SDS011;8017;50.812;4.934;2022-08-04T05:29:02;8.07;;;4.00;;
15833;SDS011;8017;50.812;4.934;2022-08-04T05:32:08;8.47;;;4.33;;
15833;SDS011;8017;50.812;4.934;2022-08-04T05:35:19;6.17;;;3.93;;
15833;SDS011;8017;50.812;4.934;2022-08-04T05:38:28;6.73;;;4.33;;
15833;SDS011;8017;50.812;4.934;2022-08-04T05:41:35;8.60;;;4.97;;
15833;SDS011;8017;50.812;4.934;2022-08-04T05:44:37;7.50;;;4.33;;
15833;SDS011;8017;50.812;4.934;2022-08-04T05:47:40;10.17;;;5.43;;
15833;SDS011;8017;50.812;4.934;2022-08-04T05:50:45;7.43;;;4.90;;
15833;SDS011;8017;50.812;4.934;2022-08-04T05:53:47;7.77;;;4.93;;
15833;SDS011;8017;50.812;4.934;2022-08-04T05:56:52;9.70;;;4.80;;
15833;SDS011;8017;50.812;4.934;2022-08-04T05:59:55;7.17;;;5.03;;
15833;SDS011;8017;50.812;4.934;2022-08-04T06:03:00;7.70;;;5.20;;
15833;SDS011;8017;50.812;4.934;2022-08-04T06:06:04;10.30;;;5.33;;
15833;SDS011;8017;50.812;4.934;2022-08-04T06:09:07;12.07;;;5.37;;
15833;SDS011;8017;50.812;4.934;2022-08-04T06:12:17;9.83;;;5.03;;
15833;SDS011;8017;50.812;4.934;2022-08-04T06:15:21;10.80;;;5.20;;
15833;SDS011;8017;50.812;4.934;2022-08-04T06:18:26;9.63;;;5.37;;
15833;SDS011;8017;50.812;4.934;2022-08-04T06:21:31;8.33;;;5.00;;
15833;SDS011;8017;50.812;4.934;2022-08-04T06:24:35;9.83;;;5.03;;
15833;SDS011;8017;50.812;4.934;2022-08-04T06:27:39;5.60;;;4.53;;
15833;SDS011;8017;50.812;4.934;2022-08-04T06:30:41;12.07;;;4.47;;
15833;SDS011;8017;50.812;4.934;2022-08-04T06:33:47;7.60;;;4.70;;
15833;SDS011;8017;50.812;4.934;2022-08-04T06:36:53;10.43;;;4.77;;
15833;SDS011;8017;50.812;4.934;2022-08-04T06:39:55;7.97;;;4.60;;
15833;SDS011;8017;50.812;4.934;2022-08-04T06:42:58;8.83;;;4.60;;
15833;SDS011;8017;50.812;4.934;2022-08-04T06:46:02;6.20;;;3.93;;
15833;SDS011;8017;50.812;4.934;2022-08-04T06:49:06;7.97;;;4.13;;
15833;SDS011;8017;50.812;4.934;2022-08-04T06:52:10;9.97;;;4.40;;
15833;SDS011;8017;50.812;4.934;2022-08-04T06:55:16;7.73;;;3.90;;
15833;SDS011;8017;50.812;4.934;2022-08-04T06:58:18;6.87;;;4.27;;
15833;SDS011;8017;50.812;4.934;2022-08-04T07:01:21;7.63;;;4.33;;
15833;SDS011;8017;50.812;4.934;2022-08-04T07:04:26;8.23;;;4.20;;
15833;SDS011;8017;50.812;4.934;2022-08-04T07:07:30;6.17;;;4.13;;
15833;SDS011;8017;50.812;4.934;2022-08-04T07:10:32;8.23;;;4.37;;
15833;SDS011;8017;50.812;4.934;2022-08-04T07:13:34;5.97;;;4.10;;
15833;SDS011;8017;50.812;4.934;2022-08-04T07:16:37;8.70;;;4.43;;
15833;SDS011;8017;50.812;4.934;2022-08-04T07:19:42;9.63;;;4.20;;
15833;SDS011;8017;50.812;4.934;2022-08-04T07:22:46;7.87;;;4.00;;
15833;SDS011;8017;50.812;4.934;2022-08-04T07:25:49;5.93;;;3.67;;
15833;SDS011;8017;50.812;4.934;2022-08-04T07:28:52;8.30;;;3.80;;
15833;SDS011;8017;50.812;4.934;2022-08-04T07:31:56;11.17;;;3.77;;
15833;SDS011;8017;50.812;4.934;2022-08-04T07:34:59;7.77;;;3.10;;
15833;SDS011;8017;50.812;4.934;2022-08-04T07:38:04;8.23;;;3.20;;
15833;SDS011;8017;50.812;4.934;2022-08-04T07:41:06;11.87;;;3.13;;
15833;SDS011;8017;50.812;4.934;2022-08-04T07:44:08;8.90;;;3.27;;
15833;SDS011;8017;50.812;4.934;2022-08-04T07:47:11;9.10;;;2.90;;
15833;SDS011;8017;50.812;4.934;2022-08-04T07:50:13;6.20;;;2.70;;
15833;SDS011;8017;50.812;4.934;2022-08-04T07:53:18;6.70;;;2.43;;
15833;SDS011;8017;50.812;4.934;2022-08-04T07:56:21;5.43;;;2.83;;
15833;SDS011;8017;50.812;4.934;2022-08-04T07:59:23;7.43;;;2.70;;
15833;SDS011;8017;50.812;4.934;2022-08-04T08:02:25;5.30;;;2.37;;
15833;SDS011;8017;50.812;4.934;2022-08-04T08:05:28;9.40;;;3.53;;
15833;SDS011;8017;50.812;4.934;2022-08-04T08:08:31;5.90;;;3.00;;
15833;SDS011;8017;50.812;4.934;2022-08-04T08:11:33;9.57;;;3.50;;
15833;SDS011;8017;50.812;4.934;2022-08-04T08:14:35;8.73;;;3.40;;
15833;SDS011;8017;50.812;4.934;2022-08-04T08:17:38;10.47;;;3.37;;
15833;SDS011;8017;50.812;4.934;2022-08-04T08:20:42;9.10;;;2.60;;
15833;SDS011;8017;50.812;4.934;2022-08-04T08:23:46;7.10;;;2.27;;
15833;SDS011;8017;50.812;4.934;2022-08-04T08:26:49;8.73;;;2.83;;
15833;SDS011;8017;50.812;4.934;2022-08-04T08:29:51;11.70;;;2.80;;
15833;SDS011;8017;50.812;4.934;2022-08-04T08:32:55;7.63;;;2.57;;
15833;SDS011;8017;50.812;4.934;2022-08-04T08:35:59;6.47;;;2.50;;
15833;SDS011;8017;50.812;4.934;2022-08-04T08:39:09;7.83;;;2.20;;
15833;SDS011;8017;50.812;4.934;2022-08-04T08:42:17;7.67;;;2.30;;
15833;SDS011;8017;50.812;4.934;2022-08-04T08:45:46;8.10;;;2.47;;
15833;SDS011;8017;50.812;4.934;2022-08-04T08:49:03;6.57;;;2.40;;
15833;SDS011;8017;50.812;4.934;2022-08-04T08:52:25;8.50;;;2.50;;
15833;SDS011;8017;50.812;4.934;2022-08-04T08:55:48;6.17;;;2.30;;
15833;SDS011;8017;50.812;4.934;2022-08-04T08:59:10;6.53;;;2.03;;
15833;SDS011;8017;50.812;4.934;2022-08-04T09:02:30;9.20;;;2.53;;
15833;SDS011;8017;50.812;4.934;2022-08-04T09:12:55;7.47;;;2.57;;
15833;SDS011;8017;50.812;4.934;2022-08-04T09:16:01;5.57;;;2.17;;
15833;SDS011;8017;50.812;4.934;2022-08-04T09:19:09;7.47;;;2.20;;
15833;SDS011;8017;50.812;4.934;2022-08-04T09:22:19;11.20;;;2.77;;
15833;SDS011;8017;50.812;4.934;2022-08-04T09:25:29;5.30;;;2.40;;
15833;SDS011;8017;50.812;4.934;2022-08-04T09:28:37;7.53;;;2.57;;
15833;SDS011;8017;50.812;4.934;2022-08-04T09:31:52;10.00;;;2.77;;
15833;SDS011;8017;50.812;4.934;2022-08-04T09:35:02;6.83;;;2.07;;
15833;SDS011;8017;50.812;4.934;2022-08-04T09:38:15;7.17;;;2.20;;
15833;SDS011;8017;50.812;4.934;2022-08-04T09:41:23;8.20;;;2.40;;
15833;SDS011;8017;50.812;4.934;2022-08-04T09:44:42;10.13;;;2.40;;
15833;SDS011;8017;50.812;4.934;2022-08-04T09:47:52;10.73;;;2.60;;
15833;SDS011;8017;50.812;4.934;2022-08-04T09:50:58;8.50;;;2.47;;
15833;SDS011;8017;50.812;4.934;2022-08-04T09:54:01;10.73;;;2.47;;
15833;SDS011;8017;50.812;4.934;2022-08-04T09:57:06;12.03;;;2.53;;
15833;SDS011;8017;50.812;4.934;2022-08-04T10:00:15;7.53;;;2.83;;
15833;SDS011;8017;50.812;4.934;2022-08-04T10:03:20;12.57;;;2.50;;
15833;SDS011;8017;50.812;4.934;2022-08-04T10:10:18;7.23;;;2.67;;
15833;SDS011;8017;50.812;4.934;2022-08-04T10:13:35;12.97;;;2.70;;
15833;SDS011;8017;50.812;4.934;2022-08-04T10:16:51;6.63;;;2.67;;
15833;SDS011;8017;50.812;4.934;2022-08-04T10:20:02;6.73;;;2.37;;
15833;SDS011;8017;50.812;4.934;2022-08-04T10:23:10;9.17;;;2.87;;
15833;SDS011;8017;50.812;4.934;2022-08-04T10:26:19;12.33;;;2.60;;
15833;SDS011;8017;50.812;4.934;2022-08-04T10:29:29;5.93;;;2.20;;
15833;SDS011;8017;50.812;4.934;2022-08-04T10:32:44;8.43;;;2.33;;
15833;SDS011;8017;50.812;4.934;2022-08-04T10:35:53;6.40;;;2.30;;
15833;SDS011;8017;50.812;4.934;2022-08-04T10:39:02;8.20;;;2.10;;
15833;SDS011;8017;50.812;4.934;2022-08-04T10:42:11;9.97;;;2.47;;
15833;SDS011;8017;50.812;4.934;2022-08-04T10:45:21;8.70;;;2.40;;
15833;SDS011;8017;50.812;4.934;2022-08-04T10:48:31;9.53;;;2.70;;
15833;SDS011;8017;50.812;4.934;2022-08-04T10:51:43;7.00;;;2.23;;
15833;SDS011;8017;50.812;4.934;2022-08-04T10:54:51;7.23;;;2.47;;
15833;SDS011;8017;50.812;4.934;2022-08-04T10:57:58;13.37;;;2.87;;
15833;SDS011;8017;50.812;4.934;2022-08-04T11:01:02;8.30;;;2.92;;
15833;SDS011;8017;50.812;4.934;2022-08-04T11:04:16;8.93;;;2.47;;
15833;SDS011;8017;50.812;4.934;2022-08-04T11:07:27;7.93;;;2.97;;
15833;SDS011;8017;50.812;4.934;2022-08-04T11:10:34;11.35;;;2.67;;
15833;SDS011;8017;50.812;4.934;2022-08-04T11:13:44;7.95;;;2.40;;
15833;SDS011;8017;50.812;4.934;2022-08-04T11:16:51;9.70;;;2.75;;
15833;SDS011;8017;50.812;4.934;2022-08-04T11:19:58;9.32;;;3.00;;
15833;SDS011;8017;50.812;4.934;2022-08-04T11:23:05;11.23;;;2.47;;
15833;SDS011;8017;50.812;4.934;2022-08-04T11:26:11;9.93;;;2.83;;
15833;SDS011;8017;50.812;4.934;2022-08-04T11:29:21;24.33;;;4.50;;
15833;SDS011;8017;50.812;4.934;2022-08-04T11:32:29;8.50;;;3.30;;
15833;SDS011;8017;50.812;4.934;2022-08-04T11:35:41;23.85;;;4.78;;
15833;SDS011;8017;50.812;4.934;2022-08-04T11:38:48;7.15;;;2.75;;
15833;SDS011;8017;50.812;4.934;2022-08-04T11:41:59;5.75;;;2.85;;
15833;SDS011;8017;50.812;4.934;2022-08-04T11:45:07;7.28;;;2.90;;
15833;SDS011;8017;50.812;4.934;2022-08-04T11:48:16;6.88;;;3.15;;
15833;SDS011;8017;50.812;4.934;2022-08-04T11:51:26;5.65;;;2.42;;
15833;SDS011;8017;50.812;4.934;2022-08-04T11:54:29;6.72;;;3.15;;
15833;SDS011;8017;50.812;4.934;2022-08-04T11:57:34;7.80;;;2.95;;
15833;SDS011;8017;50.812;4.934;2022-08-04T12:00:37;6.32;;;3.30;;
15833;SDS011;8017;50.812;4.934;2022-08-04T12:03:51;8.15;;;3.40;;
15833;SDS011;8017;50.812;4.934;2022-08-04T12:07:05;7.80;;;3.50;;
15833;SDS011;8017;50.812;4.934;2022-08-04T12:10:19;11.18;;;3.58;;
15833;SDS011;8017;50.812;4.934;2022-08-04T12:13:27;7.47;;;3.25;;
15833;SDS011;8017;50.812;4.934;2022-08-04T12:16:42;6.57;;;3.47;;
15833;SDS011;8017;50.812;4.934;2022-08-04T12:19:49;6.60;;;3.50;;
15833;SDS011;8017;50.812;4.934;2022-08-04T12:22:54;10.07;;;4.40;;
15833;SDS011;8017;50.812;4.934;2022-08-04T12:25:57;13.65;;;4.63;;
15833;SDS011;8017;50.812;4.934;2022-08-04T12:29:04;7.47;;;4.30;;
15833;SDS011;8017;50.812;4.934;2022-08-04T12:32:19;6.82;;;4.00;;
15833;SDS011;8017;50.812;4.934;2022-08-04T12:35:28;8.32;;;4.47;;
15833;SDS011;8017;50.812;4.934;2022-08-04T12:38:35;11.70;;;4.28;;
15833;SDS011;8017;50.812;4.934;2022-08-04T12:41:53;10.68;;;4.70;;
15833;SDS011;8017;50.812;4.934;2022-08-04T12:45:02;10.75;;;5.40;;
15833;SDS011;8017;50.812;4.934;2022-08-04T12:48:08;11.48;;;6.18;;
15833;SDS011;8017;50.812;4.934;2022-08-04T12:51:11;9.15;;;6.25;;
15833;SDS011;8017;50.812;4.934;2022-08-04T12:54:15;11.88;;;6.13;;
15833;SDS011;8017;50.812;4.934;2022-08-04T12:57:25;12.50;;;6.22;;
15833;SDS011;8017;50.812;4.934;2022-08-04T13:00:28;11.20;;;6.60;;
15833;SDS011;8017;50.812;4.934;2022-08-04T13:03:36;11.30;;;5.65;;
15833;SDS011;8017;50.812;4.934;2022-08-04T13:06:41;10.73;;;6.63;;
15833;SDS011;8017;50.812;4.934;2022-08-04T13:09:46;11.70;;;6.50;;
15833;SDS011;8017;50.812;4.934;2022-08-04T13:12:50;12.75;;;6.95;;
15833;SDS011;8017;50.812;4.934;2022-08-04T13:15:57;10.43;;;6.53;;
15833;SDS011;8017;50.812;4.934;2022-08-04T13:19:00;12.85;;;6.50;;
15833;SDS011;8017;50.812;4.934;2022-08-04T13:22:03;9.40;;;5.78;;
15833;SDS011;8017;50.812;4.934;2022-08-04T13:25:07;11.23;;;5.50;;
15833;SDS011;8017;50.812;4.934;2022-08-04T13:28:12;9.30;;;5.55;;
15833;SDS011;8017;50.812;4.934;2022-08-04T13:31:16;7.97;;;4.93;;
15833;SDS011;8017;50.812;4.934;2022-08-04T13:34:19;11.82;;;6.25;;
15833;SDS011;8017;50.812;4.934;2022-08-04T13:37:23;10.80;;;5.50;;
15833;SDS011;8017;50.812;4.934;2022-08-04T13:40:32;10.70;;;5.75;;
15833;SDS011;8017;50.812;4.934;2022-08-04T13:43:39;9.00;;;5.57;;
15833;SDS011;8017;50.812;4.934;2022-08-04T13:46:45;9.80;;;6.00;;
15833;SDS011;8017;50.812;4.934;2022-08-04T13:50:05;11.73;;;5.95;;
15833;SDS011;8017;50.812;4.934;2022-08-04T13:53:10;16.08;;;6.75;;
15833;SDS011;8017;50.812;4.934;2022-08-04T13:56:14;11.93;;;5.40;;
15833;SDS011;8017;50.812;4.934;2022-08-04T13:59:17;8.40;;;5.72;;
15833;SDS011;8017;50.812;4.934;2022-08-04T14:02:24;9.15;;;5.53;;
15833;SDS011;8017;50.812;4.934;2022-08-04T14:05:31;7.93;;;4.90;;
15833;SDS011;8017;50.812;4.934;2022-08-04T14:08:34;7.78;;;5.15;;
15833;SDS011;8017;50.812;4.934;2022-08-04T14:11:45;8.07;;;5.00;;
15833;SDS011;8017;50.812;4.934;2022-08-04T14:14:50;10.65;;;5.25;;
15833;SDS011;8017;50.812;4.934;2022-08-04T14:17:52;11.20;;;6.60;;
15833;SDS011;8017;50.812;4.934;2022-08-04T14:20:58;9.43;;;5.80;;
15833;SDS011;8017;50.812;4.934;2022-08-04T14:24:02;13.80;;;6.25;;
15833;SDS011;8017;50.812;4.934;2022-08-04T14:27:06;9.98;;;6.25;;
15833;SDS011;8017;50.812;4.934;2022-08-04T14:30:18;13.65;;;6.43;;
15833;SDS011;8017;50.812;4.934;2022-08-04T14:33:22;12.52;;;6.00;;
15833;SDS011;8017;50.812;4.934;2022-08-04T14:36:24;13.57;;;7.72;;
15833;SDS011;8017;50.812;4.934;2022-08-04T14:39:36;11.05;;;7.05;;
15833;SDS011;8017;50.812;4.934;2022-08-04T14:42:40;12.57;;;7.20;;
15833;SDS011;8017;50.812;4.934;2022-08-04T14:45:44;10.45;;;7.55;;
15833;SDS011;8017;50.812;4.934;2022-08-04T14:48:59;12.63;;;7.25;;
15833;SDS011;8017;50.812;4.934;2022-08-04T14:52:06;12.10;;;7.47;;
15833;SDS011;8017;50.812;4.934;2022-08-04T14:55:15;9.00;;;6.10;;
15833;SDS011;8017;50.812;4.934;2022-08-04T14:58:21;7.25;;;5.47;;
15833;SDS011;8017;50.812;4.934;2022-08-04T15:01:24;9.55;;;6.28;;
15833;SDS011;8017;50.812;4.934;2022-08-04T15:04:27;11.02;;;6.57;;
15833;SDS011;8017;50.812;4.934;2022-08-04T15:07:31;9.43;;;5.90;;
15833;SDS011;8017;50.812;4.934;2022-08-04T15:10:33;11.30;;;6.20;;
15833;SDS011;8017;50.812;4.934;2022-08-04T15:13:37;9.75;;;6.45;;
15833;SDS011;8017;50.812;4.934;2022-08-04T15:16:39;9.65;;;5.70;;
15833;SDS011;8017;50.812;4.934;2022-08-04T15:19:42;7.72;;;5.00;;
15833;SDS011;8017;50.812;4.934;2022-08-04T15:22:44;9.30;;;5.22;;
15833;SDS011;8017;50.812;4.934;2022-08-04T15:25:47;9.90;;;5.68;;
15833;SDS011;8017;50.812;4.934;2022-08-04T15:28:53;11.35;;;6.25;;
15833;SDS011;8017;50.812;4.934;2022-08-04T15:32:00;7.68;;;4.45;;
15833;SDS011;8017;50.812;4.934;2022-08-04T15:35:08;7.75;;;4.88;;
15833;SDS011;8017;50.812;4.934;2022-08-04T15:38:12;7.47;;;5.90;;
15833;SDS011;8017;50.812;4.934;2022-08-04T15:41:25;6.68;;;4.60;;
15833;SDS011;8017;50.812;4.934;2022-08-04T15:44:45;7.47;;;4.10;;
15833;SDS011;8017;50.812;4.934;2022-08-04T15:51:35;9.27;;;3.05;;
15833;SDS011;8017;50.812;4.934;2022-08-04T15:54:37;5.43;;;3.55;;
15833;SDS011;8017;50.812;4.934;2022-08-04T16:01:13;5.72;;;3.00;;
15833;SDS011;8017;50.812;4.934;2022-08-04T16:04:20;6.55;;;3.10;;
15833;SDS011;8017;50.812;4.934;2022-08-04T16:10:53;5.90;;;2.55;;
15833;SDS011;8017;50.812;4.934;2022-08-04T16:14:06;6.45;;;2.13;;
15833;SDS011;8017;50.812;4.934;2022-08-04T16:17:17;6.55;;;2.95;;
15833;SDS011;8017;50.812;4.934;2022-08-04T16:20:19;7.22;;;2.92;;
15833;SDS011;8017;50.812;4.934;2022-08-04T16:23:34;3.53;;;2.05;;
15833;SDS011;8017;50.812;4.934;2022-08-04T16:26:51;6.82;;;2.35;;
15833;SDS011;8017;50.812;4.934;2022-08-04T16:30:01;5.13;;;2.25;;
15833;SDS011;8017;50.812;4.934;2022-08-04T16:33:05;5.63;;;2.78;;
15833;SDS011;8017;50.812;4.934;2022-08-04T16:36:10;3.95;;;2.28;;
15833;SDS011;8017;50.812;4.934;2022-08-04T16:39:17;6.97;;;2.20;;
15833;SDS011;8017;50.812;4.934;2022-08-04T16:42:31;6.57;;;2.80;;
15833;SDS011;8017;50.812;4.934;2022-08-04T16:49:05;7.15;;;2.55;;
15833;SDS011;8017;50.812;4.934;2022-08-04T16:52:07;4.65;;;3.00;;
15833;SDS011;8017;50.812;4.934;2022-08-04T16:55:09;5.75;;;2.65;;
15833;SDS011;8017;50.812;4.934;2022-08-04T16:58:12;10.18;;;2.80;;
15833;SDS011;8017;50.812;4.934;2022-08-04T17:01:14;11.52;;;2.58;;
15833;SDS011;8017;50.812;4.934;2022-08-04T17:04:22;6.60;;;2.67;;
15833;SDS011;8017;50.812;4.934;2022-08-04T17:07:29;5.85;;;2.08;;
15833;SDS011;8017;50.812;4.934;2022-08-04T17:10:49;3.05;;;2.28;;
15833;SDS011;8017;50.812;4.934;2022-08-04T17:13:51;4.43;;;2.50;;
15833;SDS011;8017;50.812;4.934;2022-08-04T17:16:55;3.95;;;2.22;;
15833;SDS011;8017;50.812;4.934;2022-08-04T17:19:59;4.32;;;2.17;;
15833;SDS011;8017;50.812;4.934;2022-08-04T17:26:32;4.55;;;2.13;;
15833;SDS011;8017;50.812;4.934;2022-08-04T17:29:35;4.72;;;2.50;;
15833;SDS011;8017;50.812;4.934;2022-08-04T17:32:37;7.28;;;2.90;;
15833;SDS011;8017;50.812;4.934;2022-08-04T17:35:41;6.35;;;2.67;;
15833;SDS011;8017;50.812;4.934;2022-08-04T17:38:44;6.30;;;2.60;;
15833;SDS011;8017;50.812;4.934;2022-08-04T17:41:48;5.55;;;2.80;;
15833;SDS011;8017;50.812;4.934;2022-08-04T17:45:05;3.88;;;2.70;;
15833;SDS011;8017;50.812;4.934;2022-08-04T17:48:13;6.63;;;3.20;;
15833;SDS011;8017;50.812;4.934;2022-08-04T17:51:20;6.75;;;2.35;;
15833;SDS011;8017;50.812;4.934;2022-08-04T17:54:27;9.05;;;2.75;;
15833;SDS011;8017;50.812;4.934;2022-08-04T17:57:31;4.75;;;2.50;;
15833;SDS011;8017;50.812;4.934;2022-08-04T18:00:33;6.40;;;3.10;;
15833;SDS011;8017;50.812;4.934;2022-08-04T18:03:35;6.10;;;3.53;;
15833;SDS011;8017;50.812;4.934;2022-08-04T18:06:39;6.40;;;3.22;;
15833;SDS011;8017;50.812;4.934;2022-08-04T18:09:50;4.00;;;2.70;;
15833;SDS011;8017;50.812;4.934;2022-08-04T18:12:55;3.72;;;2.78;;
15833;SDS011;8017;50.812;4.934;2022-08-04T18:16:07;4.73;;;3.13;;
15833;SDS011;8017;50.812;4.934;2022-08-04T18:19:10;7.25;;;3.15;;
15833;SDS011;8017;50.812;4.934;2022-08-04T18:22:14;7.60;;;3.13;;
15833;SDS011;8017;50.812;4.934;2022-08-04T18:25:17;6.03;;;3.30;;
15833;SDS011;8017;50.812;4.934;2022-08-04T18:28:20;6.22;;;3.00;;
15833;SDS011;8017;50.812;4.934;2022-08-04T18:31:22;5.45;;;2.80;;
15833;SDS011;8017;50.812;4.934;2022-08-04T18:34:24;3.77;;;2.60;;
15833;SDS011;8017;50.812;4.934;2022-08-04T18:37:27;3.37;;;2.13;;
15833;SDS011;8017;50.812;4.934;2022-08-04T18:40:29;4.83;;;2.23;;
15833;SDS011;8017;50.812;4.934;2022-08-04T18:43:31;5.97;;;2.50;;
15833;SDS011;8017;50.812;4.934;2022-08-04T18:46:32;4.57;;;2.30;;
15833;SDS011;8017;50.812;4.934;2022-08-04T18:49:34;4.53;;;2.37;;
15833;SDS011;8017;50.812;4.934;2022-08-04T18:52:38;4.23;;;2.23;;
15833;SDS011;8017;50.812;4.934;2022-08-04T18:55:40;5.67;;;2.30;;
15833;SDS011;8017;50.812;4.934;2022-08-04T18:58:42;7.77;;;2.50;;
15833;SDS011;8017;50.812;4.934;2022-08-04T19:01:44;8.70;;;2.50;;
15833;SDS011;8017;50.812;4.934;2022-08-04T19:04:46;6.13;;;2.13;;
15833;SDS011;8017;50.812;4.934;2022-08-04T19:07:50;3.83;;;2.00;;
15833;SDS011;8017;50.812;4.934;2022-08-04T19:10:52;4.27;;;2.30;;
15833;SDS011;8017;50.812;4.934;2022-08-04T19:13:54;5.57;;;2.40;;
15833;SDS011;8017;50.812;4.934;2022-08-04T19:16:57;5.70;;;2.53;;
15833;SDS011;8017;50.812;4.934;2022-08-04T19:19:58;6.17;;;2.20;;
15833;SDS011;8017;50.812;4.934;2022-08-04T19:23:03;5.60;;;2.13;;
15833;SDS011;8017;50.812;4.934;2022-08-04T19:26:05;6.37;;;2.83;;
15833;SDS011;8017;50.812;4.934;2022-08-04T19:29:07;8.73;;;3.30;;
15833;SDS011;8017;50.812;4.934;2022-08-04T19:32:09;7.77;;;3.26;;
15833;SDS011;8017;50.812;4.934;2022-08-04T19:35:13;6.00;;;3.57;;
15833;SDS011;8017;50.812;4.934;2022-08-04T19:38:16;7.07;;;3.60;;
15833;SDS011;8017;50.812;4.934;2022-08-04T19:41:19;5.63;;;3.77;;
15833;SDS011;8017;50.812;4.934;2022-08-04T19:44:21;8.77;;;4.17;;
15833;SDS011;8017;50.812;4.934;2022-08-04T19:47:23;10.47;;;4.73;;
15833;SDS011;8017;50.812;4.934;2022-08-04T19:50:25;11.43;;;5.77;;
15833;SDS011;8017;50.812;4.934;2022-08-04T19:53:28;8.03;;;5.60;;
15833;SDS011;8017;50.812;4.934;2022-08-04T19:56:30;7.93;;;5.30;;
15833;SDS011;8017;50.812;4.934;2022-08-04T19:59:32;8.23;;;5.93;;